Zanesville, OH (43701)

6:14 AM EST on November 22, 2017 (GMT -0500)
weather | | Change Station

Elev 830 ft 39.97 °N, 82.00 °W | Updated 53 seconds ago

Overcast
Overcast
36.3 °F
Feels Like 34 °F
N
3.4
Wind Variable Wind from SW
Gusts 5.8 mph

Today
High -- | Low -- °F
--% Chance of Precip.
Yesterday
High -- | Low -- °F
Precip. -- in
Pressure 30.15 in
Visibility 10.0 miles
Clouds Overcast 4300 ft
Windchill 34 °F
Dew Point 30 °F
Humidity 77%
Rainfall 0.00 in
Snow Depth Not available.
7:21 AM 5:06 PM
Waxing Crescent, 14% visible
METAR KZZV 221053Z AUTO 31009KT 10SM OVC043 02/M01 A3014 RMK AO2 SLP208 T00221011
Pressure 30.15 in
Visibility 10.0 miles
Clouds Overcast 4300 ft
Windchill 34 °F
Dew Point 30 °F
Humidity 77%
Rainfall 0.00 in
Snow Depth Not available.
7:21 AM 5:06 PM
Waxing Crescent, 14% visible
METAR KZZV 221053Z AUTO 31009KT 10SM OVC043 02/M01 A3014 RMK AO2 SLP208 T00221011

Get Severe Weather Alerts

Thanks for signing up!

Be on the lookout for a verification email in your inbox.

You'll start receiving the daily forecast at 6 AM.

×

10-Day Weather Forecast

Almanac

Astronomy

Nov. 22, 2017 Rise Set
Actual Time
Civil Twilight
Nautical Twilight
Astronomical Twilight
Moon
Length of Visible Light
Length of Day
Tomorrow will be .
, % of the Moon is Illuminated

Today's Extremes

State Highs State Lows

Community

WunderPhotos

Category 6

Welcome to Category 6. This is the collective home for Weather Underground's featured writeups by Dr. Jeff Masters (right), Bob Henson (left), Chris Burt, and other regular contributors.

Nearby

Air Quality

  Air Quality AQ Index Pollutant
Not available.

Snow Depth

Station Depth Elevation

Earthquake Activity

City Distance Mag. Time & Date
Minimum magnitude displayed is 2.5.

Coastal Water Temperatures

Place Temperature

Stations

Nearby Weather Stations

Station Location Temp. Windchill Dew Point Humidity Wind Precip. Elev Updated Type
                   

Watches & Warnings

There are currently no watches in effect.